sensor_id;sensor_type;location;lat;lon;timestamp;temperature;humidity
19966;DHT22;10144;50.874;4.762;2023-12-07T00:01:11;2.80;99.90
19966;DHT22;10144;50.874;4.762;2023-12-07T00:03:40;2.80;99.90
19966;DHT22;10144;50.874;4.762;2023-12-07T00:06:06;2.80;99.90
19966;DHT22;10144;50.874;4.762;2023-12-07T00:08:50;2.90;99.90
19966;DHT22;10144;50.874;4.762;2023-12-07T00:11:38;2.90;99.90
19966;DHT22;10144;50.874;4.762;2023-12-07T00:14:06;2.90;99.90
19966;DHT22;10144;50.874;4.762;2023-12-07T00:16:34;2.80;99.90
19966;DHT22;10144;50.874;4.762;2023-12-07T00:18:59;2.80;99.90
19966;DHT22;10144;50.874;4.762;2023-12-07T00:21:26;2.90;99.90
19966;DHT22;10144;50.874;4.762;2023-12-07T00:23:55;3.00;99.90
19966;DHT22;10144;50.874;4.762;2023-12-07T00:26:22;3.00;99.90
19966;DHT22;10144;50.874;4.762;2023-12-07T00:28:50;3.00;99.90
19966;DHT22;10144;50.874;4.762;2023-12-07T00:31:18;3.00;99.90
19966;DHT22;10144;50.874;4.762;2023-12-07T00:33:45;3.00;99.90
19966;DHT22;10144;50.874;4.762;2023-12-07T00:36:14;3.00;99.90
19966;DHT22;10144;50.874;4.762;2023-12-07T00:38:43;3.00;99.90
19966;DHT22;10144;50.874;4.762;2023-12-07T00:41:09;3.00;99.90
19966;DHT22;10144;50.874;4.762;2023-12-07T00:43:38;3.00;99.90
19966;DHT22;10144;50.874;4.762;2023-12-07T00:46:07;3.00;99.90
19966;DHT22;10144;50.874;4.762;2023-12-07T00:48:40;2.90;99.90
19966;DHT22;10144;50.874;4.762;2023-12-07T00:51:06;2.90;99.90
19966;DHT22;10144;50.874;4.762;2023-12-07T00:53:35;2.80;99.90
19966;DHT22;10144;50.874;4.762;2023-12-07T00:56:03;2.70;99.90
19966;DHT22;10144;50.874;4.762;2023-12-07T00:58:32;2.60;99.90
19966;DHT22;10144;50.874;4.762;2023-12-07T01:01:07;2.70;99.90
19966;DHT22;10144;50.874;4.762;2023-12-07T01:03:37;2.90;99.90
19966;DHT22;10144;50.874;4.762;2023-12-07T01:06:06;2.90;99.90
19966;DHT22;10144;50.874;4.762;2023-12-07T01:08:32;3.20;99.90
19966;DHT22;10144;50.874;4.762;2023-12-07T01:11:01;3.00;99.90
19966;DHT22;10144;50.874;4.762;2023-12-07T01:13:27;3.00;99.90
19966;DHT22;10144;50.874;4.762;2023-12-07T01:15:59;2.90;99.90
19966;DHT22;10144;50.874;4.762;2023-12-07T01:18:26;3.10;99.90
19966;DHT22;10144;50.874;4.762;2023-12-07T01:20:55;3.10;99.90
19966;DHT22;10144;50.874;4.762;2023-12-07T01:23:22;3.10;99.90
19966;DHT22;10144;50.874;4.762;2023-12-07T01:25:51;3.10;99.90
19966;DHT22;10144;50.874;4.762;2023-12-07T01:28:20;3.00;99.90
19966;DHT22;10144;50.874;4.762;2023-12-07T01:30:47;3.00;99.90
19966;DHT22;10144;50.874;4.762;2023-12-07T01:33:18;3.00;99.90
19966;DHT22;10144;50.874;4.762;2023-12-07T01:35:46;3.00;99.90
19966;DHT22;10144;50.874;4.762;2023-12-07T01:38:15;2.90;99.90
19966;DHT22;10144;50.874;4.762;2023-12-07T01:40:44;2.90;99.90
19966;DHT22;10144;50.874;4.762;2023-12-07T01:43:12;2.90;99.90
19966;DHT22;10144;50.874;4.762;2023-12-07T01:45:41;2.90;99.90
19966;DHT22;10144;50.874;4.762;2023-12-07T01:48:10;3.00;99.90
19966;DHT22;10144;50.874;4.762;2023-12-07T01:50:37;2.90;99.90
19966;DHT22;10144;50.874;4.762;2023-12-07T01:53:06;3.00;99.90
19966;DHT22;10144;50.874;4.762;2023-12-07T01:55:35;3.00;99.90
19966;DHT22;10144;50.874;4.762;2023-12-07T01:58:07;3.00;99.90
19966;DHT22;10144;50.874;4.762;2023-12-07T02:00:34;3.20;99.90
19966;DHT22;10144;50.874;4.762;2023-12-07T02:03:05;3.30;99.90
19966;DHT22;10144;50.874;4.762;2023-12-07T02:05:35;3.10;99.90
19966;DHT22;10144;50.874;4.762;2023-12-07T02:08:05;3.20;99.90
19966;DHT22;10144;50.874;4.762;2023-12-07T02:10:31;3.20;99.90
19966;DHT22;10144;50.874;4.762;2023-12-07T02:12:58;3.20;99.90
19966;DHT22;10144;50.874;4.762;2023-12-07T02:15:24;3.20;99.90
19966;DHT22;10144;50.874;4.762;2023-12-07T02:18:34;3.10;99.90
19966;DHT22;10144;50.874;4.762;2023-12-07T02:21:25;3.20;99.90
19966;DHT22;10144;50.874;4.762;2023-12-07T02:23:58;3.20;99.90
19966;DHT22;10144;50.874;4.762;2023-12-07T02:26:31;3.10;99.90
19966;DHT22;10144;50.874;4.762;2023-12-07T02:28:57;3.00;99.90
19966;DHT22;10144;50.874;4.762;2023-12-07T02:31:29;3.00;99.90
19966;DHT22;10144;50.874;4.762;2023-12-07T02:33:56;3.00;99.90
19966;DHT22;10144;50.874;4.762;2023-12-07T02:36:27;3.00;99.90
19966;DHT22;10144;50.874;4.762;2023-12-07T02:38:56;3.10;99.90
19966;DHT22;10144;50.874;4.762;2023-12-07T02:41:33;3.10;99.90
19966;DHT22;10144;50.874;4.762;2023-12-07T02:44:02;3.10;99.90
19966;DHT22;10144;50.874;4.762;2023-12-07T02:46:29;3.10;99.90
19966;DHT22;10144;50.874;4.762;2023-12-07T02:49:02;3.10;99.90
19966;DHT22;10144;50.874;4.762;2023-12-07T02:51:27;3.10;99.90
19966;DHT22;10144;50.874;4.762;2023-12-07T02:53:54;3.10;99.90
19966;DHT22;10144;50.874;4.762;2023-12-07T02:56:26;3.00;99.90
19966;DHT22;10144;50.874;4.762;2023-12-07T02:59:04;3.00;99.90
19966;DHT22;10144;50.874;4.762;2023-12-07T03:01:29;2.90;99.90
19966;DHT22;10144;50.874;4.762;2023-12-07T03:04:01;3.00;99.90
19966;DHT22;10144;50.874;4.762;2023-12-07T03:06:28;3.10;99.90
19966;DHT22;10144;50.874;4.762;2023-12-07T03:08:53;3.10;99.90
19966;DHT22;10144;50.874;4.762;2023-12-07T03:11:23;3.10;99.90
19966;DHT22;10144;50.874;4.762;2023-12-07T03:13:49;3.00;99.90
19966;DHT22;10144;50.874;4.762;2023-12-07T03:16:16;2.90;99.90
19966;DHT22;10144;50.874;4.762;2023-12-07T03:18:45;2.90;99.90
19966;DHT22;10144;50.874;4.762;2023-12-07T03:21:14;3.10;99.90
19966;DHT22;10144;50.874;4.762;2023-12-07T03:23:42;3.00;99.90
19966;DHT22;10144;50.874;4.762;2023-12-07T03:26:10;3.00;99.90
19966;DHT22;10144;50.874;4.762;2023-12-07T03:28:39;3.10;99.90
19966;DHT22;10144;50.874;4.762;2023-12-07T03:31:06;3.20;99.90
19966;DHT22;10144;50.874;4.762;2023-12-07T03:33:36;3.30;99.90
19966;DHT22;10144;50.874;4.762;2023-12-07T03:36:01;3.30;99.90
19966;DHT22;10144;50.874;4.762;2023-12-07T03:38:27;3.30;99.90
19966;DHT22;10144;50.874;4.762;2023-12-07T03:40:59;3.20;99.90
19966;DHT22;10144;50.874;4.762;2023-12-07T03:43:28;3.10;99.90
19966;DHT22;10144;50.874;4.762;2023-12-07T03:45:55;3.00;99.90
19966;DHT22;10144;50.874;4.762;2023-12-07T03:48:24;3.10;99.90
19966;DHT22;10144;50.874;4.762;2023-12-07T03:50:50;3.10;99.90
19966;DHT22;10144;50.874;4.762;2023-12-07T03:53:18;3.00;99.90
19966;DHT22;10144;50.874;4.762;2023-12-07T03:55:47;3.00;99.90
19966;DHT22;10144;50.874;4.762;2023-12-07T03:58:16;3.10;99.90
19966;DHT22;10144;50.874;4.762;2023-12-07T04:00:48;3.20;99.90
19966;DHT22;10144;50.874;4.762;2023-12-07T04:03:16;3.20;99.90
19966;DHT22;10144;50.874;4.762;2023-12-07T04:05:45;3.20;99.90
19966;DHT22;10144;50.874;4.762;2023-12-07T04:08:17;3.20;99.90
19966;DHT22;10144;50.874;4.762;2023-12-07T04:10:43;3.20;99.90
19966;DHT22;10144;50.874;4.762;2023-12-07T04:13:12;3.10;99.90
19966;DHT22;10144;50.874;4.762;2023-12-07T04:15:41;3.10;99.90
19966;DHT22;10144;50.874;4.762;2023-12-07T04:18:07;3.00;99.90
19966;DHT22;10144;50.874;4.762;2023-12-07T04:20:36;3.00;99.90
19966;DHT22;10144;50.874;4.762;2023-12-07T04:23:07;3.00;99.90
19966;DHT22;10144;50.874;4.762;2023-12-07T04:25:36;3.00;99.90
19966;DHT22;10144;50.874;4.762;2023-12-07T04:28:27;3.10;99.90
19966;DHT22;10144;50.874;4.762;2023-12-07T04:30:59;3.10;99.90
19966;DHT22;10144;50.874;4.762;2023-12-07T04:33:25;3.20;99.90
19966;DHT22;10144;50.874;4.762;2023-12-07T04:35:54;3.20;99.90
19966;DHT22;10144;50.874;4.762;2023-12-07T04:38:22;3.00;99.90
19966;DHT22;10144;50.874;4.762;2023-12-07T04:40:51;2.90;99.90
19966;DHT22;10144;50.874;4.762;2023-12-07T04:43:17;2.90;99.90
19966;DHT22;10144;50.874;4.762;2023-12-07T04:45:48;2.90;99.90
19966;DHT22;10144;50.874;4.762;2023-12-07T04:48:17;2.90;99.90
19966;DHT22;10144;50.874;4.762;2023-12-07T04:50:46;2.90;99.90
19966;DHT22;10144;50.874;4.762;2023-12-07T04:53:15;2.90;99.90
19966;DHT22;10144;50.874;4.762;2023-12-07T04:55:41;2.90;99.90
19966;DHT22;10144;50.874;4.762;2023-12-07T04:58:12;2.90;99.90
19966;DHT22;10144;50.874;4.762;2023-12-07T05:00:41;2.70;99.90
19966;DHT22;10144;50.874;4.762;2023-12-07T05:03:10;2.70;99.90
19966;DHT22;10144;50.874;4.762;2023-12-07T05:05:36;2.80;99.90
19966;DHT22;10144;50.874;4.762;2023-12-07T05:08:05;2.90;99.90
19966;DHT22;10144;50.874;4.762;2023-12-07T05:10:33;3.10;99.90
19966;DHT22;10144;50.874;4.762;2023-12-07T05:13:02;3.00;99.90
19966;DHT22;10144;50.874;4.762;2023-12-07T05:15:27;2.90;99.90
19966;DHT22;10144;50.874;4.762;2023-12-07T05:17:55;2.90;99.90
19966;DHT22;10144;50.874;4.762;2023-12-07T05:20:30;2.80;99.90
19966;DHT22;10144;50.874;4.762;2023-12-07T05:22:59;2.70;99.90
19966;DHT22;10144;50.874;4.762;2023-12-07T05:25:26;2.80;99.90
19966;DHT22;10144;50.874;4.762;2023-12-07T05:27:52;3.00;99.90
19966;DHT22;10144;50.874;4.762;2023-12-07T05:30:21;2.90;99.90
19966;DHT22;10144;50.874;4.762;2023-12-07T05:32:50;2.70;99.90
19966;DHT22;10144;50.874;4.762;2023-12-07T05:35:16;2.90;99.90
19966;DHT22;10144;50.874;4.762;2023-12-07T05:37:45;2.90;99.90
19966;DHT22;10144;50.874;4.762;2023-12-07T05:40:11;2.90;99.90
19966;DHT22;10144;50.874;4.762;2023-12-07T05:42:40;2.80;99.90
19966;DHT22;10144;50.874;4.762;2023-12-07T05:45:08;2.80;99.90
19966;DHT22;10144;50.874;4.762;2023-12-07T05:47:35;2.70;99.90
19966;DHT22;10144;50.874;4.762;2023-12-07T05:50:08;2.60;99.90
19966;DHT22;10144;50.874;4.762;2023-12-07T05:52:35;2.60;99.90
19966;DHT22;10144;50.874;4.762;2023-12-07T05:55:03;2.80;99.90
19966;DHT22;10144;50.874;4.762;2023-12-07T05:57:30;2.80;99.90
19966;DHT22;10144;50.874;4.762;2023-12-07T05:59:59;2.80;99.90
19966;DHT22;10144;50.874;4.762;2023-12-07T06:02:28;2.80;99.90
19966;DHT22;10144;50.874;4.762;2023-12-07T06:04:57;2.80;99.90
19966;DHT22;10144;50.874;4.762;2023-12-07T06:07:26;2.70;99.90
19966;DHT22;10144;50.874;4.762;2023-12-07T06:09:52;2.60;99.90
19966;DHT22;10144;50.874;4.762;2023-12-07T06:12:20;2.80;99.90
19966;DHT22;10144;50.874;4.762;2023-12-07T06:14:48;2.90;99.90
19966;DHT22;10144;50.874;4.762;2023-12-07T06:17:22;2.70;99.90
19966;DHT22;10144;50.874;4.762;2023-12-07T06:19:51;2.70;99.90
19966;DHT22;10144;50.874;4.762;2023-12-07T06:22:20;2.80;99.90
19966;DHT22;10144;50.874;4.762;2023-12-07T06:24:49;2.70;99.90
19966;DHT22;10144;50.874;4.762;2023-12-07T06:27:18;2.70;99.90
19966;DHT22;10144;50.874;4.762;2023-12-07T06:29:47;2.80;99.90
19966;DHT22;10144;50.874;4.762;2023-12-07T06:32:16;2.80;99.90
19966;DHT22;10144;50.874;4.762;2023-12-07T06:34:42;2.90;99.90
19966;DHT22;10144;50.874;4.762;2023-12-07T06:37:14;2.80;99.90
19966;DHT22;10144;50.874;4.762;2023-12-07T06:39:41;2.60;99.90
19966;DHT22;10144;50.874;4.762;2023-12-07T06:42:07;2.50;99.90
19966;DHT22;10144;50.874;4.762;2023-12-07T06:44:52;2.40;99.90
19966;DHT22;10144;50.874;4.762;2023-12-07T06:47:20;2.40;99.90
19966;DHT22;10144;50.874;4.762;2023-12-07T06:49:48;2.30;99.90
19966;DHT22;10144;50.874;4.762;2023-12-07T06:52:15;2.30;99.90
19966;DHT22;10144;50.874;4.762;2023-12-07T06:54:43;2.20;99.90
19966;DHT22;10144;50.874;4.762;2023-12-07T06:57:12;2.10;99.90
19966;DHT22;10144;50.874;4.762;2023-12-07T06:59:41;2.20;99.90
19966;DHT22;10144;50.874;4.762;2023-12-07T07:02:07;2.20;99.90
19966;DHT22;10144;50.874;4.762;2023-12-07T07:04:36;2.20;99.90
19966;DHT22;10144;50.874;4.762;2023-12-07T07:07:03;2.20;99.90
19966;DHT22;10144;50.874;4.762;2023-12-07T07:09:32;2.20;99.90
19966;DHT22;10144;50.874;4.762;2023-12-07T07:11:58;2.10;99.90
19966;DHT22;10144;50.874;4.762;2023-12-07T07:14:27;2.10;99.90
19966;DHT22;10144;50.874;4.762;2023-12-07T07:16:56;2.20;99.90
19966;DHT22;10144;50.874;4.762;2023-12-07T07:19:25;2.10;99.90
19966;DHT22;10144;50.874;4.762;2023-12-07T07:21:54;2.20;99.90
19966;DHT22;10144;50.874;4.762;2023-12-07T07:24:23;2.00;99.90
19966;DHT22;10144;50.874;4.762;2023-12-07T07:26:52;2.00;99.90
19966;DHT22;10144;50.874;4.762;2023-12-07T07:29:18;2.00;99.90
19966;DHT22;10144;50.874;4.762;2023-12-07T07:31:47;2.00;99.90
19966;DHT22;10144;50.874;4.762;2023-12-07T07:34:12;1.90;99.90
19966;DHT22;10144;50.874;4.762;2023-12-07T07:36:40;1.90;99.90
19966;DHT22;10144;50.874;4.762;2023-12-07T07:39:06;1.90;99.90
19966;DHT22;10144;50.874;4.762;2023-12-07T07:41:34;1.80;99.90
19966;DHT22;10144;50.874;4.762;2023-12-07T07:43:59;1.90;99.90
19966;DHT22;10144;50.874;4.762;2023-12-07T07:46:25;1.80;99.90
19966;DHT22;10144;50.874;4.762;2023-12-07T07:48:51;1.80;99.90
19966;DHT22;10144;50.874;4.762;2023-12-07T07:51:16;1.90;99.90
19966;DHT22;10144;50.874;4.762;2023-12-07T07:53:42;1.90;99.90
19966;DHT22;10144;50.874;4.762;2023-12-07T07:56:09;1.90;99.90
19966;DHT22;10144;50.874;4.762;2023-12-07T07:58:36;1.90;99.90
19966;DHT22;10144;50.874;4.762;2023-12-07T08:01:02;2.00;99.90
19966;DHT22;10144;50.874;4.762;2023-12-07T08:03:27;1.90;99.90
19966;DHT22;10144;50.874;4.762;2023-12-07T08:05:53;2.00;99.90
19966;DHT22;10144;50.874;4.762;2023-12-07T08:08:18;2.20;99.90
19966;DHT22;10144;50.874;4.762;2023-12-07T08:10:45;2.20;99.90
19966;DHT22;10144;50.874;4.762;2023-12-07T08:13:11;2.20;99.90
19966;DHT22;10144;50.874;4.762;2023-12-07T08:15:36;2.30;99.90
19966;DHT22;10144;50.874;4.762;2023-12-07T08:18:02;2.30;99.90
19966;DHT22;10144;50.874;4.762;2023-12-07T08:20:28;2.70;99.90
19966;DHT22;10144;50.874;4.762;2023-12-07T08:22:53;3.00;99.90
19966;DHT22;10144;50.874;4.762;2023-12-07T08:25:19;3.20;99.90
19966;DHT22;10144;50.874;4.762;2023-12-07T08:27:45;3.30;99.90
19966;DHT22;10144;50.874;4.762;2023-12-07T08:30:11;3.80;99.90
19966;DHT22;10144;50.874;4.762;2023-12-07T08:32:38;4.60;99.90
19966;DHT22;10144;50.874;4.762;2023-12-07T08:35:05;5.20;99.90
19966;DHT22;10144;50.874;4.762;2023-12-07T08:37:32;5.80;99.90
19966;DHT22;10144;50.874;4.762;2023-12-07T08:39:58;6.50;99.90
19966;DHT22;10144;50.874;4.762;2023-12-07T08:42:23;7.30;99.90
19966;DHT22;10144;50.874;4.762;2023-12-07T08:44:49;7.50;99.90
19966;DHT22;10144;50.874;4.762;2023-12-07T08:47:15;7.50;99.90
19966;DHT22;10144;50.874;4.762;2023-12-07T08:49:40;7.50;99.90
19966;DHT22;10144;50.874;4.762;2023-12-07T08:52:06;7.30;99.90
19966;DHT22;10144;50.874;4.762;2023-12-07T08:54:32;7.40;99.90
19966;DHT22;10144;50.874;4.762;2023-12-07T08:56:57;7.70;99.90
19966;DHT22;10144;50.874;4.762;2023-12-07T08:59:23;7.50;99.90
19966;DHT22;10144;50.874;4.762;2023-12-07T09:01:49;7.90;99.90
19966;DHT22;10144;50.874;4.762;2023-12-07T09:04:14;8.70;99.90
19966;DHT22;10144;50.874;4.762;2023-12-07T09:06:40;8.90;99.90
19966;DHT22;10144;50.874;4.762;2023-12-07T09:09:06;9.40;99.90
19966;DHT22;10144;50.874;4.762;2023-12-07T09:11:31;9.00;99.90
19966;DHT22;10144;50.874;4.762;2023-12-07T09:13:57;8.70;99.90
19966;DHT22;10144;50.874;4.762;2023-12-07T09:16:23;8.10;99.90
19966;DHT22;10144;50.874;4.762;2023-12-07T09:18:51;7.40;99.90
19966;DHT22;10144;50.874;4.762;2023-12-07T09:21:17;6.40;99.90
19966;DHT22;10144;50.874;4.762;2023-12-07T09:23:42;5.80;99.90
19966;DHT22;10144;50.874;4.762;2023-12-07T09:26:08;5.50;99.90
19966;DHT22;10144;50.874;4.762;2023-12-07T09:28:34;5.30;99.90
19966;DHT22;10144;50.874;4.762;2023-12-07T09:31:00;5.20;99.90
19966;DHT22;10144;50.874;4.762;2023-12-07T09:33:26;5.20;99.90
19966;DHT22;10144;50.874;4.762;2023-12-07T09:35:51;5.20;99.90
19966;DHT22;10144;50.874;4.762;2023-12-07T09:38:17;5.20;99.90
19966;DHT22;10144;50.874;4.762;2023-12-07T09:40:43;5.00;99.90
19966;DHT22;10144;50.874;4.762;2023-12-07T09:43:09;5.00;99.90
19966;DHT22;10144;50.874;4.762;2023-12-07T09:45:35;5.00;99.90
19966;DHT22;10144;50.874;4.762;2023-12-07T09:48:01;5.30;99.90
19966;DHT22;10144;50.874;4.762;2023-12-07T09:50:28;5.50;99.90
19966;DHT22;10144;50.874;4.762;2023-12-07T09:52:57;5.90;99.90
19966;DHT22;10144;50.874;4.762;2023-12-07T09:55:24;6.30;99.90
19966;DHT22;10144;50.874;4.762;2023-12-07T09:57:53;6.60;99.90
19966;DHT22;10144;50.874;4.762;2023-12-07T10:00:22;6.60;99.90
19966;DHT22;10144;50.874;4.762;2023-12-07T10:02:47;6.80;99.90
19966;DHT22;10144;50.874;4.762;2023-12-07T10:05:14;7.10;99.90
19966;DHT22;10144;50.874;4.762;2023-12-07T10:07:43;7.40;99.90
19966;DHT22;10144;50.874;4.762;2023-12-07T10:10:09;7.60;99.90
19966;DHT22;10144;50.874;4.762;2023-12-07T10:12:59;7.80;99.90
19966;DHT22;10144;50.874;4.762;2023-12-07T10:15:25;8.00;99.90
19966;DHT22;10144;50.874;4.762;2023-12-07T10:17:52;8.30;99.90
19966;DHT22;10144;50.874;4.762;2023-12-07T10:20:20;8.70;99.90
19966;DHT22;10144;50.874;4.762;2023-12-07T10:23:02;9.90;99.90
19966;DHT22;10144;50.874;4.762;2023-12-07T10:25:37;10.80;86.30
19966;DHT22;10144;50.874;4.762;2023-12-07T10:28:03;11.20;48.40
19966;DHT22;10144;50.874;4.762;2023-12-07T10:30:32;11.20;41.10
19966;DHT22;10144;50.874;4.762;2023-12-07T10:32:58;10.90;35.10
19966;DHT22;10144;50.874;4.762;2023-12-07T10:35:23;10.10;96.30
19966;DHT22;10144;50.874;4.762;2023-12-07T10:37:49;9.80;99.90
19966;DHT22;10144;50.874;4.762;2023-12-07T10:40:15;9.60;99.90
19966;DHT22;10144;50.874;4.762;2023-12-07T10:42:41;9.80;99.90
19966;DHT22;10144;50.874;4.762;2023-12-07T10:45:08;10.00;94.20
19966;DHT22;10144;50.874;4.762;2023-12-07T10:47:36;10.30;90.10
19966;DHT22;10144;50.874;4.762;2023-12-07T10:50:06;10.50;73.90
19966;DHT22;10144;50.874;4.762;2023-12-07T10:52:48;10.80;45.70
19966;DHT22;10144;50.874;4.762;2023-12-07T10:55:19;10.60;36.80
19966;DHT22;10144;50.874;4.762;2023-12-07T10:57:47;9.80;69.20
19966;DHT22;10144;50.874;4.762;2023-12-07T11:00:13;9.40;99.90
19966;DHT22;10144;50.874;4.762;2023-12-07T11:02:40;9.30;99.30
19966;DHT22;10144;50.874;4.762;2023-12-07T11:05:06;8.50;99.90
19966;DHT22;10144;50.874;4.762;2023-12-07T11:07:41;8.20;99.90
19966;DHT22;10144;50.874;4.762;2023-12-07T11:10:19;8.30;99.90
19966;DHT22;10144;50.874;4.762;2023-12-07T11:12:53;8.20;99.90
19966;DHT22;10144;50.874;4.762;2023-12-07T11:15:20;7.90;99.90
19966;DHT22;10144;50.874;4.762;2023-12-07T11:17:54;7.90;99.90
19966;DHT22;10144;50.874;4.762;2023-12-07T11:20:41;7.60;99.90
19966;DHT22;10144;50.874;4.762;2023-12-07T11:23:18;7.60;99.90
19966;DHT22;10144;50.874;4.762;2023-12-07T11:25:51;7.60;99.90
19966;DHT22;10144;50.874;4.762;2023-12-07T11:28:18;7.50;99.90
19966;DHT22;10144;50.874;4.762;2023-12-07T11:30:46;7.70;99.90
19966;DHT22;10144;50.874;4.762;2023-12-07T11:33:14;7.90;99.90
19966;DHT22;10144;50.874;4.762;2023-12-07T11:36:03;8.20;99.90
19966;DHT22;10144;50.874;4.762;2023-12-07T11:38:29;8.20;99.90
19966;DHT22;10144;50.874;4.762;2023-12-07T11:40:56;8.20;99.90
19966;DHT22;10144;50.874;4.762;2023-12-07T11:46:07;7.90;99.90
19966;DHT22;10144;50.874;4.762;2023-12-07T11:48:33;7.70;99.90
19966;DHT22;10144;50.874;4.762;2023-12-07T11:51:05;8.10;99.90
19966;DHT22;10144;50.874;4.762;2023-12-07T11:53:36;8.10;99.90
19966;DHT22;10144;50.874;4.762;2023-12-07T11:56:05;8.00;99.90
19966;DHT22;10144;50.874;4.762;2023-12-07T11:58:33;7.60;99.90
19966;DHT22;10144;50.874;4.762;2023-12-07T12:01:12;7.30;99.90
19966;DHT22;10144;50.874;4.762;2023-12-07T12:03:39;7.10;99.90
19966;DHT22;10144;50.874;4.762;2023-12-07T12:06:06;7.20;99.90
19966;DHT22;10144;50.874;4.762;2023-12-07T12:08:35;6.70;99.90
19966;DHT22;10144;50.874;4.762;2023-12-07T12:11:01;6.60;99.90
19966;DHT22;10144;50.874;4.762;2023-12-07T12:13:28;6.30;99.90
19966;DHT22;10144;50.874;4.762;2023-12-07T12:15:56;6.30;99.90
19966;DHT22;10144;50.874;4.762;2023-12-07T12:18:24;6.40;99.90
19966;DHT22;10144;50.874;4.762;2023-12-07T12:20:51;6.50;99.90
19966;DHT22;10144;50.874;4.762;2023-12-07T12:23:18;6.40;99.90
19966;DHT22;10144;50.874;4.762;2023-12-07T12:25:45;6.30;99.90
19966;DHT22;10144;50.874;4.762;2023-12-07T12:28:11;6.20;99.90
19966;DHT22;10144;50.874;4.762;2023-12-07T12:30:39;6.10;99.90
19966;DHT22;10144;50.874;4.762;2023-12-07T12:33:05;5.90;99.90
19966;DHT22;10144;50.874;4.762;2023-12-07T12:35:30;5.80;99.90
19966;DHT22;10144;50.874;4.762;2023-12-07T12:37:57;5.60;99.90
19966;DHT22;10144;50.874;4.762;2023-12-07T12:40:23;5.60;99.90
19966;DHT22;10144;50.874;4.762;2023-12-07T12:42:53;5.40;99.90
19966;DHT22;10144;50.874;4.762;2023-12-07T12:45:19;5.40;99.90
19966;DHT22;10144;50.874;4.762;2023-12-07T12:47:46;5.30;99.90
19966;DHT22;10144;50.874;4.762;2023-12-07T12:50:32;5.40;99.90
19966;DHT22;10144;50.874;4.762;2023-12-07T12:52:58;5.30;99.90
19966;DHT22;10144;50.874;4.762;2023-12-07T12:55:26;5.20;99.90
19966;DHT22;10144;50.874;4.762;2023-12-07T12:57:52;5.30;99.90
19966;DHT22;10144;50.874;4.762;2023-12-07T13:00:18;5.40;99.90
19966;DHT22;10144;50.874;4.762;2023-12-07T13:02:44;5.40;99.90
19966;DHT22;10144;50.874;4.762;2023-12-07T13:05:10;5.40;99.90
19966;DHT22;10144;50.874;4.762;2023-12-07T13:07:35;5.40;99.90
19966;DHT22;10144;50.874;4.762;2023-12-07T13:10:01;5.40;99.90
19966;DHT22;10144;50.874;4.762;2023-12-07T13:12:27;5.40;99.90
19966;DHT22;10144;50.874;4.762;2023-12-07T13:14:54;5.30;99.90
19966;DHT22;10144;50.874;4.762;2023-12-07T13:17:20;5.10;99.90
19966;DHT22;10144;50.874;4.762;2023-12-07T13:19:45;5.20;99.90
19966;DHT22;10144;50.874;4.762;2023-12-07T13:22:11;5.20;99.90
19966;DHT22;10144;50.874;4.762;2023-12-07T13:24:37;5.30;99.90
19966;DHT22;10144;50.874;4.762;2023-12-07T13:27:03;5.20;99.90
19966;DHT22;10144;50.874;4.762;2023-12-07T13:29:29;5.10;99.90
19966;DHT22;10144;50.874;4.762;2023-12-07T13:31:55;5.00;99.90
19966;DHT22;10144;50.874;4.762;2023-12-07T13:34:20;5.00;99.90
19966;DHT22;10144;50.874;4.762;2023-12-07T13:36:46;5.10;99.90
19966;DHT22;10144;50.874;4.762;2023-12-07T13:39:12;5.10;99.90
19966;DHT22;10144;50.874;4.762;2023-12-07T13:41:38;5.20;99.90
19966;DHT22;10144;50.874;4.762;2023-12-07T13:44:04;5.10;99.90
19966;DHT22;10144;50.874;4.762;2023-12-07T13:46:30;5.10;99.90
19966;DHT22;10144;50.874;4.762;2023-12-07T13:48:58;5.20;99.90
19966;DHT22;10144;50.874;4.762;2023-12-07T13:51:24;5.20;99.90
19966;DHT22;10144;50.874;4.762;2023-12-07T13:53:50;5.20;99.90
19966;DHT22;10144;50.874;4.762;2023-12-07T13:56:20;5.30;99.90
19966;DHT22;10144;50.874;4.762;2023-12-07T13:58:46;5.30;99.90
19966;DHT22;10144;50.874;4.762;2023-12-07T14:01:12;5.30;99.90
19966;DHT22;10144;50.874;4.762;2023-12-07T14:03:37;5.30;99.90
19966;DHT22;10144;50.874;4.762;2023-12-07T14:06:03;5.40;99.90
19966;DHT22;10144;50.874;4.762;2023-12-07T14:08:30;5.30;99.90
19966;DHT22;10144;50.874;4.762;2023-12-07T14:10:56;5.20;99.90
19966;DHT22;10144;50.874;4.762;2023-12-07T14:13:22;5.10;99.90
19966;DHT22;10144;50.874;4.762;2023-12-07T14:15:49;5.00;99.90
19966;DHT22;10144;50.874;4.762;2023-12-07T14:18:16;5.00;99.90
19966;DHT22;10144;50.874;4.762;2023-12-07T14:20:42;5.00;99.90
19966;DHT22;10144;50.874;4.762;2023-12-07T14:23:09;5.00;99.90
19966;DHT22;10144;50.874;4.762;2023-12-07T14:25:35;5.00;99.90
19966;DHT22;10144;50.874;4.762;2023-12-07T14:28:01;4.90;99.90
19966;DHT22;10144;50.874;4.762;2023-12-07T14:30:27;4.90;99.90
19966;DHT22;10144;50.874;4.762;2023-12-07T14:32:52;4.80;99.90
19966;DHT22;10144;50.874;4.762;2023-12-07T14:35:19;4.90;99.90
19966;DHT22;10144;50.874;4.762;2023-12-07T14:37:45;4.90;99.90
19966;DHT22;10144;50.874;4.762;2023-12-07T14:40:12;4.80;99.90
19966;DHT22;10144;50.874;4.762;2023-12-07T14:42:40;4.80;99.90
19966;DHT22;10144;50.874;4.762;2023-12-07T14:45:06;4.90;99.90
19966;DHT22;10144;50.874;4.762;2023-12-07T14:47:32;4.80;99.90
19966;DHT22;10144;50.874;4.762;2023-12-07T14:49:58;4.70;99.90
19966;DHT22;10144;50.874;4.762;2023-12-07T14:52:23;4.70;99.90
19966;DHT22;10144;50.874;4.762;2023-12-07T14:54:50;4.70;99.90
19966;DHT22;10144;50.874;4.762;2023-12-07T14:57:15;4.80;99.90
19966;DHT22;10144;50.874;4.762;2023-12-07T14:59:41;4.80;99.90
19966;DHT22;10144;50.874;4.762;2023-12-07T15:02:06;4.70;99.90
19966;DHT22;10144;50.874;4.762;2023-12-07T15:04:32;4.60;99.90
19966;DHT22;10144;50.874;4.762;2023-12-07T15:06:58;4.60;99.90
19966;DHT22;10144;50.874;4.762;2023-12-07T15:09:23;4.50;99.90
19966;DHT22;10144;50.874;4.762;2023-12-07T15:11:50;4.50;99.90
19966;DHT22;10144;50.874;4.762;2023-12-07T15:14:16;4.40;99.90
19966;DHT22;10144;50.874;4.762;2023-12-07T15:16:42;4.40;99.90
19966;DHT22;10144;50.874;4.762;2023-12-07T15:19:07;4.30;99.90
19966;DHT22;10144;50.874;4.762;2023-12-07T15:21:33;4.20;99.90
19966;DHT22;10144;50.874;4.762;2023-12-07T15:23:59;4.20;99.90
19966;DHT22;10144;50.874;4.762;2023-12-07T15:26:26;4.20;99.90
19966;DHT22;10144;50.874;4.762;2023-12-07T15:28:51;4.30;99.90
19966;DHT22;10144;50.874;4.762;2023-12-07T15:31:17;4.20;99.90
19966;DHT22;10144;50.874;4.762;2023-12-07T15:33:44;4.10;99.90
19966;DHT22;10144;50.874;4.762;2023-12-07T15:36:10;4.20;99.90
19966;DHT22;10144;50.874;4.762;2023-12-07T15:38:36;4.20;99.90
19966;DHT22;10144;50.874;4.762;2023-12-07T15:41:03;4.20;99.90
19966;DHT22;10144;50.874;4.762;2023-12-07T15:43:30;4.10;99.90
19966;DHT22;10144;50.874;4.762;2023-12-07T15:45:59;4.10;99.90
19966;DHT22;10144;50.874;4.762;2023-12-07T15:48:25;4.10;99.90
19966;DHT22;10144;50.874;4.762;2023-12-07T15:50:51;4.20;99.90
19966;DHT22;10144;50.874;4.762;2023-12-07T15:53:17;4.20;99.90